Time;durP1;ratioP1;P1;durP2;ratioP2;P2;SDS_P1;SDS_P2;PMS_P1;PMS_P2;Temp;Humidity;BMP_temperature;BMP_pressure;BME280_temperature;BME280_humidity;BME280_pressure;Samples;Min_cycle;Max_cycle;Signal;HPM_P1;HPM_P2
2024/01/28 00:02:20;;;;;;;23.83;12.33;;;3.00;97.10;;;;;;4969819;28;25212;-72
2024/01/28 00:04:47;;;;;;;88.13;17.73;;;3.00;97.40;;;;;;4969988;28;20536;-72
2024/01/28 00:07:14;;;;;;;25.43;13.60;;;3.00;97.50;;;;;;4987219;28;20481;-73
2024/01/28 00:09:41;;;;;;;30.00;13.47;;;3.00;97.20;;;;;;4966623;28;20482;-69
2024/01/28 00:12:09;;;;;;;35.43;14.67;;;2.90;97.20;;;;;;4933851;28;20517;-72
2024/01/28 00:14:36;;;;;;;22.60;13.97;;;2.90;97.30;;;;;;4984506;28;20576;-70
2024/01/28 00:17:03;;;;;;;24.23;13.00;;;2.90;97.50;;;;;;4983227;28;20911;-71
2024/01/28 00:19:31;;;;;;;22.27;13.23;;;2.80;97.60;;;;;;4987673;28;20895;-73
2024/01/28 00:21:58;;;;;;;28.63;13.23;;;2.80;97.60;;;;;;4977186;28;20497;-69
2024/01/28 00:24:25;;;;;;;22.87;11.40;;;2.80;97.60;;;;;;4932976;28;20521;-75
2024/01/28 00:26:51;;;;;;;23.47;12.87;;;2.80;97.60;;;;;;4978856;28;20887;-71
2024/01/28 00:29:19;;;;;;;27.27;14.60;;;2.70;97.60;;;;;;4971445;28;20497;-72
2024/01/28 00:31:46;;;;;;;27.47;15.57;;;2.70;97.70;;;;;;4949476;28;20861;-70
2024/01/28 00:34:13;;;;;;;24.87;15.10;;;2.70;97.70;;;;;;4964511;28;20529;-73
2024/01/28 00:36:41;;;;;;;23.03;14.40;;;2.80;97.70;;;;;;4975023;28;20533;-73
2024/01/28 00:39:09;;;;;;;48.57;14.17;;;2.80;97.80;;;;;;4950681;28;20922;-72
2024/01/28 00:41:36;;;;;;;22.13;11.10;;;2.80;97.70;;;;;;4930819;28;20489;-71
2024/01/28 00:44:03;;;;;;;32.03;12.10;;;2.70;97.70;;;;;;4969205;28;20480;-70
2024/01/28 00:46:31;;;;;;;47.10;12.77;;;2.60;97.80;;;;;;4948371;28;20495;-73
2024/01/28 00:48:58;;;;;;;19.87;12.23;;;2.60;98.00;;;;;;4984283;28;20822;-71
2024/01/28 00:51:25;;;;;;;17.90;10.70;;;2.60;98.00;;;;;;4961288;28;20508;-72
2024/01/28 00:53:54;;;;;;;23.80;12.33;;;2.60;97.80;;;;;;4975623;28;21818;-74
2024/01/28 00:56:21;;;;;;;26.10;10.80;;;2.60;97.90;;;;;;4961156;28;20485;-73
2024/01/28 00:58:48;;;;;;;21.73;12.40;;;2.50;97.80;;;;;;4974472;28;20470;-69
2024/01/28 01:01:14;;;;;;;21.20;11.23;;;2.40;97.90;;;;;;4953067;28;20482;-74
2024/01/28 01:03:41;;;;;;;12.87;7.87;;;2.40;98.10;;;;;;4966636;28;20696;-68
2024/01/28 01:06:09;;;;;;;19.20;9.50;;;2.40;98.30;;;;;;4970889;28;20477;-69
2024/01/28 01:08:35;;;;;;;17.50;10.60;;;2.30;98.60;;;;;;4955439;28;20899;-65
2024/01/28 01:11:05;;;;;;;19.03;9.90;;;2.40;98.80;;;;;;4953047;28;20859;-65
2024/01/28 01:13:33;;;;;;;56.43;14.40;;;2.40;98.50;;;;;;4960829;28;20979;-66
2024/01/28 01:16:00;;;;;;;28.00;10.40;;;2.50;98.60;;;;;;4957775;28;20826;-66
2024/01/28 01:18:34;;;;;;;24.80;10.17;;;2.50;98.80;;;;;;4960099;28;20490;-67
2024/01/28 01:21:01;;;;;;;34.70;14.30;;;2.50;98.40;;;;;;4965354;28;21454;-66
2024/01/28 01:23:29;;;;;;;36.87;15.53;;;2.50;98.20;;;;;;4973881;28;20841;-65
2024/01/28 01:25:56;;;;;;;27.73;14.60;;;2.50;98.00;;;;;;4965634;28;20552;-66
2024/01/28 01:28:31;;;;;;;37.33;15.37;;;2.50;97.70;;;;;;4966817;28;20937;-66
2024/01/28 01:30:58;;;;;;;24.43;13.57;;;2.50;97.70;;;;;;4977930;28;20494;-66
2024/01/28 01:33:25;;;;;;;33.57;19.03;;;2.50;97.60;;;;;;4968082;28;20501;-66
2024/01/28 01:35:52;;;;;;;43.63;17.13;;;2.50;97.50;;;;;;4972866;28;20818;-65
2024/01/28 01:38:19;;;;;;;21.87;14.30;;;2.50;97.50;;;;;;4954094;28;20555;-65
2024/01/28 01:40:46;;;;;;;10.87;7.77;;;2.50;97.60;;;;;;4965039;28;21941;-66
2024/01/28 01:43:15;;;;;;;16.47;9.10;;;2.50;98.10;;;;;;4946980;28;20749;-66
2024/01/28 01:45:44;;;;;;;13.50;8.97;;;2.50;98.30;;;;;;4938233;28;20514;-66
2024/01/28 01:48:12;;;;;;;45.33;9.10;;;2.50;98.10;;;;;;4984621;28;20482;-66
2024/01/28 01:50:41;;;;;;;13.07;7.70;;;2.40;98.20;;;;;;4967007;28;20483;-66
2024/01/28 01:53:10;;;;;;;19.80;8.53;;;2.40;98.50;;;;;;4973396;28;20520;-66
2024/01/28 01:55:40;;;;;;;23.73;8.83;;;2.40;98.60;;;;;;4956643;28;21001;-66
2024/01/28 01:58:08;;;;;;;33.73;9.80;;;2.40;98.70;;;;;;4970238;28;20500;-66
2024/01/28 02:00:36;;;;;;;14.70;8.00;;;2.40;98.70;;;;;;4957401;28;20470;-66
2024/01/28 02:03:05;;;;;;;20.97;9.30;;;2.40;98.50;;;;;;4960404;28;20486;-66
2024/01/28 02:05:32;;;;;;;19.70;11.30;;;2.40;98.20;;;;;;4965226;28;20932;-66
2024/01/28 02:07:59;;;;;;;24.63;12.23;;;2.40;97.90;;;;;;4979845;28;20535;-65
2024/01/28 02:10:26;;;;;;;29.33;11.27;;;2.40;97.40;;;;;;4952334;28;20478;-65
2024/01/28 02:12:54;;;;;;;23.33;13.63;;;2.40;97.20;;;;;;4980083;28;20547;-65
2024/01/28 02:15:20;;;;;;;25.23;11.60;;;2.40;97.10;;;;;;4974438;28;20494;-66
2024/01/28 02:17:47;;;;;;;29.67;10.73;;;2.30;97.10;;;;;;4965330;28;20514;-65
2024/01/28 02:20:16;;;;;;;23.07;11.60;;;2.20;97.20;;;;;;4959343;28;21022;-66
2024/01/28 02:22:44;;;;;;;32.63;10.87;;;2.20;97.20;;;;;;4983809;28;20700;-65
2024/01/28 02:25:12;;;;;;;19.63;9.23;;;2.20;97.30;;;;;;4963668;28;20478;-66
2024/01/28 02:27:41;;;;;;;15.87;9.20;;;2.20;97.20;;;;;;4963110;28;20490;-65
2024/01/28 02:30:09;;;;;;;20.83;8.90;;;2.20;97.10;;;;;;4974343;28;20494;-65
2024/01/28 02:32:35;;;;;;;18.20;9.00;;;2.20;97.10;;;;;;4968469;28;20901;-66
2024/01/28 02:35:02;;;;;;;15.07;8.40;;;2.20;97.10;;;;;;4951331;28;20482;-66
2024/01/28 02:37:29;;;;;;;11.63;7.60;;;2.20;97.00;;;;;;4957067;28;20485;-66
2024/01/28 02:39:56;;;;;;;22.73;9.70;;;2.20;97.10;;;;;;4948638;28;20562;-66
2024/01/28 02:42:26;;;;;;;14.27;8.80;;;2.20;97.20;;;;;;4952453;28;20944;-66
2024/01/28 02:44:53;;;;;;;22.13;9.97;;;2.10;97.20;;;;;;4957123;28;20483;-65
2024/01/28 02:47:19;;;;;;;17.60;10.00;;;2.10;97.30;;;;;;4966019;28;20489;-65
2024/01/28 02:49:46;;;;;;;16.17;8.47;;;2.10;97.50;;;;;;4976409;28;20925;-66
2024/01/28 02:52:13;;;;;;;20.17;8.90;;;2.10;97.80;;;;;;4964275;28;21019;-65
2024/01/28 02:54:41;;;;;;;26.87;11.77;;;2.10;97.70;;;;;;4963166;28;20542;-64
2024/01/28 02:57:08;;;;;;;37.93;13.80;;;;;;;;;;4962205;28;20968;-65
2024/01/28 02:59:36;;;;;;;18.70;10.03;;;2.00;97.50;;;;;;4967615;28;20944;-65
2024/01/28 03:02:04;;;;;;;20.40;10.47;;;2.10;97.40;;;;;;4983239;28;20494;-66
2024/01/28 03:04:30;;;;;;;23.53;10.13;;;2.10;97.60;;;;;;4947127;28;20485;-64
2024/01/28 03:06:57;;;;;;;38.33;10.97;;;2.10;97.70;;;;;;4972703;28;20940;-65
2024/01/28 03:09:24;;;;;;;17.60;10.57;;;2.10;97.70;;;;;;4992840;28;20480;-65
2024/01/28 03:11:51;;;;;;;24.20;10.50;;;2.00;97.80;;;;;;4984680;28;20492;-64
2024/01/28 03:14:18;;;;;;;15.43;8.40;;;2.00;97.60;;;;;;4996348;28;20540;-65
2024/01/28 03:16:48;;;;;;;18.50;10.33;;;2.00;97.70;;;;;;4979430;28;20497;-64
2024/01/28 03:19:16;;;;;;;10.33;7.80;;;1.90;98.00;;;;;;4984349;28;20484;-65
2024/01/28 03:21:43;;;;;;;18.30;7.97;;;1.90;98.20;;;;;;4990110;28;20829;-64
2024/01/28 03:24:10;;;;;;;12.27;6.67;;;1.80;98.20;;;;;;4990343;28;21055;-65
2024/01/28 03:26:37;;;;;;;22.87;7.83;;;1.80;98.70;;;;;;4994791;28;20486;-65
2024/01/28 03:29:04;;;;;;;19.53;7.50;;;;;;;;;;4991348;28;20846;-64
2024/01/28 03:31:31;;;;;;;19.63;8.53;;;1.80;98.70;;;;;;4975019;28;21002;-64
2024/01/28 03:33:59;;;;;;;16.97;7.00;;;1.80;98.70;;;;;;4978791;28;20652;-64
2024/01/28 03:36:26;;;;;;;12.73;6.77;;;1.80;98.60;;;;;;4942972;28;20910;-65
2024/01/28 03:38:54;;;;;;;19.87;8.03;;;1.80;98.50;;;;;;4969084;28;20834;-72
2024/01/28 03:41:21;;;;;;;21.83;9.10;;;1.80;98.40;;;;;;4959501;28;20574;-74
2024/01/28 03:43:48;;;;;;;14.17;7.83;;;1.70;98.50;;;;;;4988495;28;20924;-72
2024/01/28 03:46:15;;;;;;;20.17;7.10;;;1.80;98.50;;;;;;4986368;28;20482;-71
2024/01/28 03:48:42;;;;;;;18.93;7.57;;;1.80;98.40;;;;;;4983563;28;20861;-71
2024/01/28 03:51:10;;;;;;;16.63;8.23;;;1.90;98.50;;;;;;4961005;28;20611;-72
2024/01/28 03:53:37;;;;;;;10.70;7.27;;;1.90;98.50;;;;;;4978724;28;20757;-72
2024/01/28 03:56:06;;;;;;;7.27;6.30;;;1.90;98.40;;;;;;4992596;28;20503;-73
2024/01/28 03:58:33;;;;;;;21.60;7.60;;;1.90;98.30;;;;;;4986879;28;20536;-71
2024/01/28 04:01:00;;;;;;;38.17;7.27;;;1.90;98.40;;;;;;5006017;28;20804;-74
2024/01/28 04:03:27;;;;;;;15.67;7.90;;;1.90;98.40;;;;;;4985606;28;20480;-71
2024/01/28 04:05:54;;;;;;;35.17;7.63;;;1.90;98.30;;;;;;4976526;28;20484;-74
2024/01/28 04:08:22;;;;;;;19.40;7.67;;;1.90;98.20;;;;;;4996537;28;20961;-71
2024/01/28 04:10:49;;;;;;;16.33;6.83;;;1.90;98.00;;;;;;4949620;28;20486;-73
2024/01/28 04:13:16;;;;;;;29.50;7.63;;;1.90;98.00;;;;;;4990649;28;20481;-72
2024/01/28 04:15:43;;;;;;;13.77;8.03;;;1.90;98.10;;;;;;4990894;28;20570;-72
2024/01/28 04:18:10;;;;;;;8.00;6.87;;;1.80;98.20;;;;;;4996103;28;20599;-74
2024/01/28 04:20:36;;;;;;;21.03;7.57;;;1.80;98.40;;;;;;4977558;28;20489;-71
2024/01/28 04:23:03;;;;;;;13.73;8.10;;;1.80;98.70;;;;;;4985892;28;20540;-70
2024/01/28 04:25:31;;;;;;;27.70;9.33;;;1.80;98.80;;;;;;4988316;28;21110;-73
2024/01/28 04:27:58;;;;;;;32.63;9.07;;;1.80;98.70;;;;;;5001329;28;20540;-69
2024/01/28 04:30:25;;;;;;;15.60;8.07;;;1.80;98.70;;;;;;4974010;28;20517;-72
2024/01/28 04:32:52;;;;;;;11.93;6.67;;;1.80;98.60;;;;;;4988257;28;20481;-75
2024/01/28 04:35:19;;;;;;;14.10;6.67;;;1.80;98.50;;;;;;4975453;28;20504;-70
2024/01/28 04:37:46;;;;;;;13.37;6.87;;;1.80;98.50;;;;;;4966378;28;20692;-71
2024/01/28 04:40:13;;;;;;;31.23;8.17;;;1.90;98.50;;;;;;4976478;28;20582;-69
2024/01/28 04:42:42;;;;;;;10.17;6.27;;;1.80;98.40;;;;;;4996440;28;20550;-72
2024/01/28 04:45:10;;;;;;;16.43;8.00;;;1.80;98.30;;;;;;4942208;28;20480;-73
2024/01/28 04:47:38;;;;;;;16.67;10.77;;;1.80;98.10;;;;;;4994846;28;20469;-72
2024/01/28 04:50:06;;;;;;;15.20;8.23;;;;;;;;;;4991317;28;20485;-74
2024/01/28 04:52:32;;;;;;;18.37;8.67;;;1.80;97.70;;;;;;4994901;28;20493;-71
2024/01/28 04:54:59;;;;;;;18.07;7.70;;;1.80;98.00;;;;;;4982196;28;20507;-74
2024/01/28 04:57:26;;;;;;;12.80;7.30;;;1.70;98.00;;;;;;4987615;28;20523;-72
2024/01/28 04:59:54;;;;;;;15.93;7.70;;;1.70;97.90;;;;;;4981927;28;20485;-68
2024/01/28 05:02:21;;;;;;;22.40;7.80;;;1.70;97.90;;;;;;4992408;28;20975;-70
2024/01/28 05:04:48;;;;;;;17.40;7.93;;;1.70;97.80;;;;;;4993619;28;20843;-70
2024/01/28 05:07:16;;;;;;;15.90;10.57;;;1.70;97.80;;;;;;4975944;28;20796;-72
2024/01/28 05:09:43;;;;;;;16.13;9.80;;;1.70;97.90;;;;;;4971040;28;20838;-70
2024/01/28 05:12:10;;;;;;;12.90;9.00;;;1.70;98.00;;;;;;4993928;28;21239;-71
2024/01/28 05:14:38;;;;;;;51.80;8.70;;;;;;;;;;4986106;28;20536;-76
2024/01/28 05:17:06;;;;;;;14.83;7.67;;;1.70;97.80;;;;;;4988992;28;20544;-73
2024/01/28 05:19:33;;;;;;;21.13;7.20;;;1.60;97.80;;;;;;4948005;28;20503;-74
2024/01/28 05:22:00;;;;;;;11.30;8.17;;;1.60;97.70;;;;;;4982261;28;20489;-72
2024/01/28 05:24:27;;;;;;;19.33;7.60;;;1.60;97.60;;;;;;4980662;28;20485;-70
2024/01/28 05:26:54;;;;;;;14.87;7.80;;;1.60;97.80;;;;;;4967566;28;21327;-71
2024/01/28 05:29:20;;;;;;;23.23;8.80;;;1.50;98.00;;;;;;4993132;28;20531;-70
2024/01/28 05:31:48;;;;;;;16.73;7.53;;;1.50;98.10;;;;;;4960439;28;20493;-76
2024/01/28 05:34:16;;;;;;;15.80;9.17;;;1.50;98.10;;;;;;4990087;28;20512;-74
2024/01/28 05:36:43;;;;;;;27.60;10.70;;;1.60;98.20;;;;;;4984620;28;20528;-71
2024/01/28 05:39:10;;;;;;;16.20;9.10;;;1.60;98.20;;;;;;4972840;28;20625;-64
2024/01/28 05:41:37;;;;;;;17.40;6.70;;;1.60;98.20;;;;;;4987397;28;20517;-65
2024/01/28 05:44:04;;;;;;;12.43;8.17;;;1.60;98.10;;;;;;4975855;28;20932;-64
2024/01/28 05:46:31;;;;;;;17.93;9.07;;;1.50;98.20;;;;;;4984056;28;20477;-65
2024/01/28 05:48:57;;;;;;;30.23;7.33;;;1.50;97.90;;;;;;5008611;28;20483;-64
2024/01/28 05:51:27;;;;;;;10.20;6.53;;;1.50;97.70;;;;;;4962849;28;20494;-64
2024/01/28 05:53:55;;;;;;;22.40;6.53;;;1.40;97.70;;;;;;4965987;28;20491;-65
2024/01/28 05:56:22;;;;;;;20.33;6.97;;;1.40;97.90;;;;;;4979621;28;20481;-64
2024/01/28 05:58:49;;;;;;;11.63;7.17;;;1.40;98.10;;;;;;4983634;28;20481;-71
2024/01/28 06:01:16;;;;;;;11.20;7.00;;;1.40;98.10;;;;;;4980294;28;20490;-71
2024/01/28 06:03:43;;;;;;;16.73;6.90;;;1.40;98.10;;;;;;4971168;28;20490;-72
2024/01/28 06:06:10;;;;;;;13.50;7.40;;;1.40;98.10;;;;;;5006294;28;20473;-74
2024/01/28 06:08:38;;;;;;;14.50;7.90;;;1.40;98.30;;;;;;4968830;28;20503;-76
2024/01/28 06:11:05;;;;;;;14.73;7.07;;;1.40;98.30;;;;;;4986465;28;20505;-75
2024/01/28 06:13:32;;;;;;;11.57;8.03;;;1.40;98.20;;;;;;4974804;28;20800;-72
2024/01/28 06:15:59;;;;;;;16.43;7.90;;;1.40;98.10;;;;;;4993871;28;20477;-72
2024/01/28 06:18:26;;;;;;;12.87;8.17;;;1.40;98.10;;;;;;4949699;28;20833;-75
2024/01/28 06:20:53;;;;;;;11.60;7.20;;;1.40;98.10;;;;;;4979964;28;21037;-73
2024/01/28 06:23:20;;;;;;;13.47;6.23;;;1.40;98.00;;;;;;4973808;28;20494;-69
2024/01/28 06:25:48;;;;;;;6.43;5.47;;;1.30;97.80;;;;;;4963137;28;20970;-74
2024/01/28 06:28:15;;;;;;;16.13;6.20;;;1.20;98.10;;;;;;4950261;28;20910;-70
2024/01/28 06:30:42;;;;;;;24.17;6.60;;;1.10;98.40;;;;;;4973751;28;20746;-72
2024/01/28 06:33:11;;;;;;;11.20;7.43;;;1.20;98.60;;;;;;4957165;28;20956;-70
2024/01/28 06:35:38;;;;;;;9.33;5.70;;;1.20;98.70;;;;;;4986480;28;20486;-69
2024/01/28 06:38:05;;;;;;;17.93;8.37;;;1.20;98.60;;;;;;4955670;28;20924;-72
2024/01/28 06:40:35;;;;;;;19.03;7.90;;;1.30;98.50;;;;;;4961078;28;20489;-72
2024/01/28 06:43:04;;;;;;;22.20;10.23;;;1.30;98.50;;;;;;4991245;28;20493;-72
2024/01/28 06:45:30;;;;;;;17.83;7.43;;;1.30;98.50;;;;;;4986767;28;20481;-73
2024/01/28 06:47:57;;;;;;;13.07;7.60;;;1.30;98.30;;;;;;4994351;28;20476;-74
2024/01/28 06:50:24;;;;;;;14.20;6.53;;;1.30;98.30;;;;;;4985685;28;20492;-75
2024/01/28 06:52:51;;;;;;;10.53;6.03;;;1.30;97.90;;;;;;4945879;28;20912;-74
2024/01/28 06:55:18;;;;;;;11.63;6.50;;;1.30;97.90;;;;;;4990335;28;20898;-73
2024/01/28 06:57:45;;;;;;;33.30;7.80;;;;;;;;;;4962254;28;20497;-73
2024/01/28 07:00:15;;;;;;;8.87;5.40;;;1.40;98.50;;;;;;4988532;28;20535;-74
2024/01/28 07:02:42;;;;;;;20.03;7.23;;;1.30;98.60;;;;;;4992258;28;20886;-73
2024/01/28 07:05:11;;;;;;;19.63;6.73;;;1.30;98.60;;;;;;4966947;28;20564;-71
2024/01/28 07:07:39;;;;;;;11.37;7.20;;;1.30;98.30;;;;;;4979164;28;21072;-75
2024/01/28 07:10:12;;;;;;;11.50;6.23;;;1.30;98.30;;;;;;4986313;28;20826;-71
2024/01/28 07:12:43;;;;;;;19.20;7.40;;;1.30;98.40;;;;;;4985296;28;20961;-75
2024/01/28 07:15:10;;;;;;;15.70;7.37;;;1.40;98.50;;;;;;4969600;28;20913;-69
2024/01/28 07:17:39;;;;;;;17.10;7.27;;;1.40;98.40;;;;;;4963304;28;20490;-70
2024/01/28 07:20:08;;;;;;;16.50;6.93;;;1.50;98.40;;;;;;4975691;28;20489;-72
2024/01/28 07:22:35;;;;;;;15.50;7.20;;;1.50;98.40;;;;;;4938541;28;20838;-73
2024/01/28 07:25:02;;;;;;;11.77;6.87;;;1.50;98.50;;;;;;4989697;28;20543;-74
2024/01/28 07:27:29;;;;;;;14.07;8.53;;;1.60;98.30;;;;;;4993035;28;20485;-73
2024/01/28 07:29:56;;;;;;;15.07;7.27;;;1.60;98.20;;;;;;4994357;28;20486;-73
2024/01/28 07:32:24;;;;;;;29.43;11.00;;;1.60;97.90;;;;;;4989469;28;20483;-72
2024/01/28 07:34:52;;;;;;;21.60;11.37;;;1.60;97.90;;;;;;4977024;28;20591;-72
2024/01/28 07:37:19;;;;;;;17.47;10.70;;;1.60;97.80;;;;;;4993831;28;20710;-73
2024/01/28 07:39:46;;;;;;;23.30;10.80;;;1.70;98.00;;;;;;4978376;28;20766;-71
2024/01/28 07:42:13;;;;;;;16.40;9.03;;;1.70;98.00;;;;;;4966141;28;20923;-75
2024/01/28 07:44:40;;;;;;;17.93;9.77;;;1.80;98.20;;;;;;4986665;28;20542;-69
2024/01/28 07:47:07;;;;;;;18.53;8.87;;;1.80;98.50;;;;;;4993642;28;20566;-71
2024/01/28 07:49:34;;;;;;;20.00;9.27;;;1.90;98.50;;;;;;4978741;28;20559;-72
2024/01/28 07:52:02;;;;;;;15.67;9.40;;;1.90;98.20;;;;;;4981553;28;20523;-73
2024/01/28 07:54:29;;;;;;;31.53;9.60;;;1.90;98.50;;;;;;4972029;28;20610;-73
2024/01/28 07:56:57;;;;;;;15.50;7.50;;;2.00;98.50;;;;;;4970102;28;20504;-72
2024/01/28 07:59:23;;;;;;;13.93;6.23;;;1.90;98.20;;;;;;4996654;28;20591;-75
2024/01/28 08:01:51;;;;;;;11.10;6.30;;;1.90;98.40;;;;;;4980295;28;20505;-64
2024/01/28 08:04:17;;;;;;;13.80;6.90;;;2.00;98.50;;;;;;4978321;28;20512;-66
2024/01/28 08:06:44;;;;;;;39.43;7.87;;;2.00;98.50;;;;;;4975848;28;20578;-65
2024/01/28 08:09:13;;;;;;;17.83;7.93;;;2.10;98.60;;;;;;4979740;28;20564;-65
2024/01/28 08:11:39;;;;;;;8.20;6.53;;;2.40;99.50;;;;;;4982845;28;20911;-66
2024/01/28 08:14:06;;;;;;;23.67;8.67;;;3.10;99.90;;;;;;4978191;28;21020;-66
2024/01/28 08:16:33;;;;;;;16.93;11.53;;;3.40;99.90;;;;;;4981235;28;20474;-66
2024/01/28 08:19:04;;;;;;;16.27;7.30;;;3.90;99.60;;;;;;4979443;28;20563;-65
2024/01/28 08:21:31;;;;;;;24.10;9.13;;;4.00;97.30;;;;;;4979043;28;20505;-65
2024/01/28 08:23:57;;;;;;;17.40;9.57;;;4.00;96.40;;;;;;4979559;28;20547;-65
2024/01/28 08:26:26;;;;;;;18.37;10.40;;;4.20;96.80;;;;;;4974869;28;20489;-66
2024/01/28 08:28:54;;;;;;;19.13;8.57;;;4.70;97.50;;;;;;4978763;28;20501;-67
2024/01/28 08:31:21;;;;;;;10.07;8.17;;;5.00;97.90;;;;;;4978002;28;21220;-66
2024/01/28 08:33:48;;;;;;;18.93;9.13;;;5.50;98.20;;;;;;4978763;28;20508;-67
2024/01/28 08:36:15;;;;;;;10.27;8.23;;;6.40;95.70;;;;;;4978512;28;20517;-66
2024/01/28 08:38:42;;;;;;;13.87;7.13;;;6.50;94.90;;;;;;4983863;28;20909;-65
2024/01/28 08:41:09;;;;;;;33.60;9.33;;;8.00;95.60;;;;;;4970507;28;20505;-65
2024/01/28 08:43:37;;;;;;;13.40;8.20;;;9.00;94.50;;;;;;4978308;28;20891;-66
2024/01/28 08:46:05;;;;;;;13.40;10.40;;;10.20;93.20;;;;;;4982987;28;20972;-67
2024/01/28 08:48:32;;;;;;;13.43;8.43;;;11.40;91.30;;;;;;4977978;28;20517;-66
2024/01/28 08:50:58;;;;;;;12.20;8.97;;;12.10;90.80;;;;;;4981025;28;20494;-66
2024/01/28 08:53:26;;;;;;;14.63;9.37;;;13.10;89.40;;;;;;4978265;28;20510;-67
2024/01/28 08:55:53;;;;;;;18.63;7.70;;;14.00;86.20;;;;;;4977979;28;20506;-67
2024/01/28 08:58:21;;;;;;;9.70;7.87;;;14.50;84.70;;;;;;4983800;28;20925;-67
2024/01/28 09:00:52;;;;;;;10.30;8.13;;;14.80;84.10;;;;;;4978502;28;20596;-66
2024/01/28 09:03:19;;;;;;;13.87;7.00;;;15.30;82.00;;;;;;4971350;28;20491;-67
2024/01/28 09:05:47;;;;;;;11.67;7.07;;;15.40;81.30;;;;;;4987855;28;20473;-66
2024/01/28 09:08:14;;;;;;;10.07;7.33;;;15.40;80.20;;;;;;4966966;28;20477;-67
2024/01/28 09:10:41;;;;;;;11.53;7.70;;;15.40;79.20;;;;;;5002160;28;20934;-71
2024/01/28 09:13:08;;;;;;;8.40;7.60;;;15.30;78.90;;;;;;4957646;28;21004;-71
2024/01/28 09:15:35;;;;;;;45.10;9.27;;;14.90;78.80;;;;;;4996872;28;20484;-69
2024/01/28 09:18:04;;;;;;;16.93;8.50;;;14.70;78.60;;;;;;4995184;28;20543;-69
2024/01/28 09:20:30;;;;;;;13.70;8.13;;;14.30;79.30;;;;;;5000381;28;20469;-71
2024/01/28 09:22:57;;;;;;;16.50;10.67;;;13.90;80.40;;;;;;4992235;28;20485;-70
2024/01/28 09:25:26;;;;;;;20.33;13.40;;;13.60;80.70;;;;;;4995923;28;20486;-69
2024/01/28 09:27:52;;;;;;;13.00;9.27;;;13.30;82.00;;;;;;4976610;28;20944;-69
2024/01/28 09:30:19;;;;;;;18.40;9.00;;;12.90;82.60;;;;;;4991763;28;20551;-69
2024/01/28 09:32:47;;;;;;;11.00;8.00;;;12.50;82.50;;;;;;4965201;28;20490;-69
2024/01/28 09:35:16;;;;;;;10.77;8.63;;;12.30;83.50;;;;;;4990678;28;20852;-69
2024/01/28 09:37:43;;;;;;;16.37;7.60;;;11.80;84.90;;;;;;4988861;28;20481;-68
2024/01/28 09:40:12;;;;;;;9.53;7.33;;;11.60;86.50;;;;;;4959898;28;21144;-68
2024/01/28 09:42:48;;;;;;;13.03;8.80;;;11.30;87.00;;;;;;4990181;28;20728;-69
2024/01/28 09:45:16;;;;;;;26.30;9.77;;;11.20;88.10;;;;;;4979034;28;20489;-68
2024/01/28 09:47:44;;;;;;;20.10;8.90;;;11.00;88.10;;;;;;4997259;28;20473;-69
2024/01/28 09:50:13;;;;;;;24.90;8.47;;;10.90;88.70;;;;;;4951394;28;20480;-67
2024/01/28 09:52:42;;;;;;;13.70;9.07;;;10.90;89.70;;;;;;4964957;28;21006;-69
2024/01/28 09:55:09;;;;;;;11.13;9.60;;;10.80;89.60;;;;;;4971886;28;20485;-67
2024/01/28 09:57:37;;;;;;;13.67;8.97;;;10.70;90.20;;;;;;4968106;28;20489;-68
2024/01/28 10:00:07;;;;;;;15.73;7.97;;;10.70;90.60;;;;;;4984587;28;20473;-68
2024/01/28 10:02:35;;;;;;;10.97;8.00;;;10.60;90.70;;;;;;4994719;28;20516;-68
2024/01/28 10:05:03;;;;;;;14.40;7.33;;;10.70;90.80;;;;;;4988247;28;20485;-69
2024/01/28 10:07:29;;;;;;;11.13;8.27;;;10.70;90.90;;;;;;4990555;28;20960;-68
2024/01/28 10:09:58;;;;;;;12.20;8.17;;;10.70;91.00;;;;;;4977768;28;20477;-68
2024/01/28 10:12:27;;;;;;;11.43;8.00;;;10.70;90.90;;;;;;4981565;28;20481;-68
2024/01/28 10:14:54;;;;;;;11.03;7.43;;;10.70;91.20;;;;;;4973041;28;20488;-68
2024/01/28 10:17:22;;;;;;;43.43;15.37;;;10.80;91.50;;;;;;4980262;28;20485;-67
2024/01/28 10:19:49;;;;;;;12.00;9.37;;;10.80;91.20;;;;;;4988548;28;20489;-68
2024/01/28 10:22:16;;;;;;;23.43;8.80;;;11.00;91.80;;;;;;4963283;28;20547;-65
2024/01/28 10:24:43;;;;;;;16.40;9.27;;;11.00;91.40;;;;;;4977804;28;20486;-66
2024/01/28 10:27:12;;;;;;;11.20;7.77;;;11.10;91.50;;;;;;4980501;28;20498;-66
2024/01/28 10:29:43;;;;;;;12.37;7.60;;;11.20;91.60;;;;;;4984725;28;20481;-65
2024/01/28 10:32:13;;;;;;;20.03;7.37;;;11.30;91.40;;;;;;4975461;28;20477;-65
2024/01/28 10:34:40;;;;;;;10.77;7.67;;;11.30;91.40;;;;;;4967676;28;20943;-65
2024/01/28 10:37:11;;;;;;;12.33;7.50;;;11.40;91.40;;;;;;4963557;28;20523;-65
2024/01/28 10:39:40;;;;;;;17.30;7.13;;;11.40;91.10;;;;;;4974090;28;20504;-65
2024/01/28 10:42:11;;;;;;;14.50;7.10;;;11.50;91.50;;;;;;4979667;28;20873;-68
2024/01/28 10:44:46;;;;;;;8.60;7.30;;;11.50;91.30;;;;;;4977892;28;20490;-68
2024/01/28 10:47:13;;;;;;;19.13;7.67;;;11.60;91.30;;;;;;4990387;28;20927;-69
2024/01/28 10:49:43;;;;;;;16.93;7.77;;;11.70;91.40;;;;;;4976466;28;20504;-70
2024/01/28 10:52:11;;;;;;;15.63;8.67;;;11.80;91.40;;;;;;4965507;28;21043;-68
2024/01/28 10:54:40;;;;;;;15.07;8.03;;;11.80;91.50;;;;;;4990029;28;20493;-70
2024/01/28 10:57:08;;;;;;;9.50;7.27;;;11.90;91.70;;;;;;4981147;28;20913;-68
2024/01/28 10:59:36;;;;;;;14.13;8.07;;;12.00;91.40;;;;;;4985546;28;20486;-69
2024/01/28 11:02:05;;;;;;;21.43;8.23;;;12.10;91.80;;;;;;4998593;28;20481;-69
2024/01/28 11:04:34;;;;;;;9.43;7.50;;;12.10;91.90;;;;;;4954093;28;20543;-68
2024/01/28 11:07:02;;;;;;;8.30;7.40;;;12.10;91.60;;;;;;4978521;28;20489;-69
2024/01/28 11:09:28;;;;;;;13.37;7.70;;;12.10;91.30;;;;;;4976678;28;20492;-69
2024/01/28 11:11:55;;;;;;;10.57;8.43;;;12.10;91.50;;;;;;4979673;28;20484;-67
2024/01/28 11:14:26;;;;;;;14.30;8.57;;;12.10;91.80;;;;;;4972946;28;20562;-69
2024/01/28 11:16:53;;;;;;;11.10;9.13;;;12.20;92.10;;;;;;4988079;28;21369;-68
2024/01/28 11:19:21;;;;;;;37.30;10.60;;;12.20;91.90;;;;;;4964862;28;20498;-69
2024/01/28 11:21:52;;;;;;;9.33;7.60;;;12.30;92.10;;;;;;4992064;28;20769;-69
2024/01/28 11:24:19;;;;;;;22.07;8.53;;;12.40;92.10;;;;;;4993335;28;21004;-69
2024/01/28 11:26:48;;;;;;;24.23;8.20;;;12.50;91.60;;;;;;4963204;28;20537;-69
2024/01/28 11:29:16;;;;;;;11.90;7.73;;;12.60;92.10;;;;;;4982688;28;20490;-69
2024/01/28 11:31:45;;;;;;;7.60;6.80;;;12.60;92.10;;;;;;4975224;28;20852;-65
2024/01/28 11:34:17;;;;;;;15.80;8.20;;;12.80;92.00;;;;;;4984288;28;20477;-65
2024/01/28 11:36:48;;;;;;;10.80;6.47;;;12.80;92.00;;;;;;4987186;28;20900;-66
2024/01/28 11:39:16;;;;;;;7.67;6.90;;;12.90;92.30;;;;;;4989127;28;20484;-65
2024/01/28 11:41:44;;;;;;;13.40;7.83;;;13.10;92.00;;;;;;4985814;28;20477;-65
2024/01/28 11:44:12;;;;;;;10.67;6.60;;;13.20;91.70;;;;;;4982265;28;20882;-64
2024/01/28 11:46:40;;;;;;;9.40;7.20;;;13.30;91.70;;;;;;4989239;28;20509;-65
2024/01/28 11:49:08;;;;;;;12.53;7.10;;;13.40;91.90;;;;;;4990060;28;20489;-65
2024/01/28 11:51:35;;;;;;;8.90;7.10;;;13.50;92.30;;;;;;4980346;28;20518;-68
2024/01/28 11:54:04;;;;;;;23.53;7.67;;;13.70;92.30;;;;;;4988864;28;20478;-68
2024/01/28 11:56:32;;;;;;;8.77;7.13;;;13.90;92.10;;;;;;4990696;28;20477;-68
2024/01/28 11:59:00;;;;;;;10.30;6.80;;;14.20;92.10;;;;;;4992377;28;20529;-68
2024/01/28 12:01:27;;;;;;;15.23;6.67;;;14.40;91.60;;;;;;4948805;28;20559;-67
2024/01/28 12:03:55;;;;;;;31.07;7.10;;;14.50;91.10;;;;;;4978545;28;21005;-68
2024/01/28 12:06:23;;;;;;;8.67;5.90;;;14.60;91.20;;;;;;4976171;28;20520;-68
2024/01/28 12:08:50;;;;;;;8.33;6.40;;;14.70;91.50;;;;;;4985447;28;20485;-68
2024/01/28 12:11:19;;;;;;;8.43;5.73;;;14.90;90.90;;;;;;4974347;28;20473;-68
2024/01/28 12:13:46;;;;;;;7.87;7.00;;;14.90;90.90;;;;;;4998908;28;21091;-67
2024/01/28 12:16:13;;;;;;;8.27;5.40;;;15.00;89.60;;;;;;4987666;28;20472;-67
2024/01/28 12:18:41;;;;;;;6.63;4.47;;;14.90;88.10;;;;;;5005573;28;20532;-68
2024/01/28 12:21:17;;;;;;;7.27;4.60;;;;;;;;;;4993652;28;20481;-67
2024/01/28 12:23:45;;;;;;;6.77;4.30;;;14.90;89.20;;;;;;4986337;28;20551;-67
2024/01/28 12:26:12;;;;;;;11.13;4.70;;;14.70;86.00;;;;;;4987727;28;20950;-67
2024/01/28 12:28:41;;;;;;;12.63;4.30;;;14.60;86.20;;;;;;4991516;28;20540;-67
2024/01/28 12:31:09;;;;;;;5.90;4.70;;;14.60;85.10;;;;;;4967386;28;20925;-68
2024/01/28 12:33:36;;;;;;;4.53;3.60;;;14.40;84.00;;;;;;4984991;28;21037;-67
2024/01/28 12:36:03;;;;;;;21.37;4.93;;;14.10;83.30;;;;;;4970737;28;20467;-67
2024/01/28 12:38:30;;;;;;;5.93;3.90;;;14.00;86.60;;;;;;4999562;28;20464;-67
2024/01/28 12:40:57;;;;;;;11.43;4.23;;;13.80;83.90;;;;;;4985108;28;20493;-68
2024/01/28 12:43:25;;;;;;;6.57;4.30;;;13.70;86.50;;;;;;4984580;28;21039;-67
2024/01/28 12:45:53;;;;;;;5.93;3.83;;;13.70;85.90;;;;;;4974288;28;20480;-68